GW0103 Weather Reports


Display with metric or nautical units.
time (UTC)temp
F
wind
direction
speed
MPH
gust
MPH
rain 1hr
in
rain 24hr
in
rain mn
in
humidity
%
barometer
mb
20240713024533 77 0.0 0.0 0.00 0.00 0.00 85 1019.7
20240713023528 77 0.0 0.0 0.00 0.00 0.00 84 1019.7
20240713022524 77 0.0 0.0 0.00 0.00 0.00 84 1019.5
20240713021519 78 0.0 0.0 0.00 0.00 0.00 82 1019.4
20240713020515 78 160 0.0 2.0 0.00 0.00 0.00 81 1019.4
20240713015530 78 0.0 0.0 0.00 0.00 0.00 81 1019.4
20240713014546 78 0.0 0.0 0.00 0.00 0.00 82 1019.3
20240713013522 78 0.0 0.0 0.00 0.00 0.00 81 1019.2
20240713012518 79 0.0 0.0 0.00 0.00 0.00 79 1019.1
20240713011534 79 126 0.0 1.0 0.00 0.00 0.00 79 1018.9
20240713010529 80 161 0.0 1.0 0.00 0.00 0.00 77 1018.9
20240713005525 80 0.0 0.0 0.00 0.00 0.00 77 1018.8
20240713004542 81 0.0 0.0 0.00 0.00 0.00 76 1018.6
20240713003537 81 0.0 0.0 0.00 0.00 0.00 75 1018.6
20240713002533 81 0.0 0.0 0.00 0.00 0.00 75 1018.7
20240713001528 81 0.0 0.0 0.00 0.00 0.00 75 1018.5
20240713000524 82 0.0 0.0 0.00 0.00 0.00 73 1018.6
20240712235520 82 0.0 0.0 0.00 0.00 0.00 71 1018.4
20240712234516 83 0.0 0.0 0.00 0.00 0.00 70 1018.5
20240712233551 83 152 0.0 2.0 0.00 0.00 0.00 69 1018.4
20240712232527 84 126 0.0 2.0 0.00 0.00 0.00 68 1018.3
20240712231525 84 169 0.0 1.0 0.00 0.00 0.00 66 1018.2
20240712230522 84 86 0.0 1.0 0.00 0.00 0.00 67 1018.0
20240712225555 84 133 0.0 1.0 0.00 0.00 0.00 65 1017.9
20240712224550 84 211 0.0 2.0 0.00 0.00 0.00 65 1017.7
20240712223526 84 0.0 0.0 0.00 0.00 0.00 65 1017.8
20240712222543 85 167 0.0 1.0 0.00 0.00 0.00 64 1017.8
20240712221518 85 164 1.0 3.0 0.00 0.00 0.00 64 1017.8
20240712220534 85 104 0.0 1.0 0.00 0.00 0.00 63 1017.9
20240712215529 85 55 0.0 2.0 0.00 0.00 0.00 62 1017.8
20240712214525 86 117 0.0 1.0 0.00 0.00 0.00 62 1017.6
20240712213521 86 95 0.0 1.0 0.00 0.00 0.00 60 1017.6
20240712212516 87 152 1.0 2.0 0.00 0.00 0.00 57 1017.5
20240712211551 86 176 1.0 3.0 0.00 0.00 0.00 58 1017.6
20240712210527 86 1 0.0 1.0 0.00 0.00 0.00 57 1017.6
20240712205523 88 301 2.0 3.0 0.00 0.00 0.00 54 1017.6
20240712204520 88 172 1.0 3.0 0.00 0.00 0.00 54 1017.6
20240712203518 88 159 1.0 4.0 0.00 0.00 0.00 57 1017.4
20240712202530 88 158 1.0 3.0 0.00 0.00 0.00 56 1017.5
20240712201546 88 161 1.0 3.0 0.00 0.00 0.00 55 1017.6
20240712200522 89 188 1.0 3.0 0.00 0.00 0.00 52 1017.7
20240712195518 89 133 1.0 4.0 0.00 0.00 0.00 53 1017.9
20240712194534 90 135 1.0 6.0 0.00 0.00 0.00 53 1017.9
20240712193529 89 214 2.0 4.0 0.00 0.00 0.00 52 1018.0
20240712192525 89 173 2.0 4.0 0.00 0.00 0.00 53 1018.0
20240712191521 90 147 1.0 3.0 0.00 0.00 0.00 52 1018.0
20240712190517 89 128 2.0 4.0 0.00 0.00 0.00 55 1018.0
20240712185533 88 24 2.0 8.0 0.00 0.00 0.00 55 1018.1
20240712184530 88 200 1.0 2.0 0.00 0.00 0.00 55 1018.2
20240712183524 88 135 1.0 4.0 0.00 0.00 0.00 55 1018.2
20240712182519 88 101 2.0 4.0 0.00 0.00 0.00 56 1018.3
20240712181615 88 113 2.0 4.0 0.00 0.00 0.00 58 1018.3
20240712180530 88 218 1.0 6.0 0.00 0.00 0.00 59 1018.3
20240712175526 87 12 1.0 3.0 0.00 0.00 0.00 60 1018.3
20240712174522 86 91 1.0 6.0 0.00 0.00 0.00 64 1018.5
20240712173519 86 331 1.0 6.0 0.00 0.00 0.00 61 1018.6
20240712172534 87 203 1.0 4.0 0.00 0.00 0.00 57 1018.7
20240712171529 87 148 1.0 3.0 0.00 0.00 0.00 60 1018.7
20240712170525 86 150 2.0 6.0 0.00 0.00 0.00 59 1018.9
20240712165541 86 193 2.0 6.0 0.00 0.00 0.00 60 1018.9
20240712164557 86 143 1.0 3.0 0.00 0.00 0.00 62 1018.9
20240712163532 85 176 2.0 3.0 0.00 0.00 0.00 61 1018.9
20240712162528 85 230 2.0 7.0 0.00 0.00 0.00 61 1018.8
20240712161544 85 210 2.0 4.0 0.00 0.00 0.00 63 1018.7
20240712160520 84 112 1.0 3.0 0.00 0.00 0.00 66 1018.8
20240712155515 85 144 0.0 1.0 0.00 0.00 0.00 63 1018.6
20240712154531 86 79 1.0 3.0 0.00 0.00 0.00 66 1018.6
20240712153526 84 190 1.0 3.0 0.00 0.00 0.00 64 1018.7
20240712152523 83 144 2.0 4.0 0.00 0.00 0.00 66 1018.9
20240712151518 84 110 1.0 4.0 0.00 0.00 0.00 64 1018.9
20240712150554 84 44 1.0 3.0 0.00 0.00 0.00 66 1018.7
20240712145529 82 160 1.0 4.0 0.00 0.00 0.00 71 1018.8
20240712144545 82 131 1.0 6.0 0.00 0.00 0.00 68 1019.0
20240712143521 83 349 1.0 3.0 0.00 0.00 0.00 69 1018.9
20240712142516 82 2 1.0 2.0 0.00 0.00 0.00 70 1018.9
20240712141532 83 342 1.0 3.0 0.00 0.00 0.00 67 1019.0
20240712140527 83 140 2.0 6.0 0.00 0.00 0.00 67 1019.0
20240712135526 82 128 2.0 4.0 0.00 0.00 0.00 68 1019.0
20240712134600 81 136 1.0 3.0 0.00 0.00 0.00 69 1019.3
20240712133535 81 166 1.0 4.0 0.00 0.00 0.00 71 1019.1
20240712132530 81 185 0.0 1.0 0.00 0.00 0.00 72 1019.1
20240712131546 80 242 0.0 2.0 0.00 0.00 0.00 73 1019.1
20240712130522 79 145 0.0 1.0 0.00 0.00 0.00 74 1019.1
20240712125518 78 117 1.0 1.0 0.00 0.00 0.00 77 1019.0
20240712124534 77 110 0.0 1.0 0.00 0.00 0.00 78 1019.1
20240712123529 76 58 0.0 1.0 0.00 0.00 0.00 81 1019.0
20240712122525 75 23 0.0 2.0 0.00 0.00 0.00 82 1019.0
20240712121521 75 157 1.0 2.0 0.00 0.00 0.00 81 1019.1
20240712120517 74 214 0.0 2.0 0.00 0.00 0.00 84 1019.0
20240712115534 74 197 0.0 1.0 0.00 0.00 0.00 84 1018.9
20240712114528 73 190 0.0 1.0 0.00 0.00 0.00 86 1018.8
20240712113524 73 131 0.0 1.0 0.00 0.00 0.00 87 1018.8
20240712112520 72 0.0 0.0 0.00 0.00 0.00 88 1018.6
20240712111516 71 119 0.0 2.0 0.00 0.00 0.00 91 1018.6
20240712110523 70 0.0 0.0 0.00 0.00 0.00 96 1018.5
20240712105547 69 0.0 0.0 0.00 0.00 0.00 98 1018.4
20240712104543 68 0.0 0.0 0.00 0.00 0.00 98 1018.4
20240712103519 68 0.0 0.0 0.00 0.00 0.00 98 1018.4
20240712102537 67 0.0 0.0 0.00 0.00 0.00 98 1018.3
20240712101530 67 0.0 0.0 0.00 0.00 0.00 97 1018.0
20240712100546 67 0.0 0.0 0.00 0.00 0.00 98 1017.9
20240712095522 67 0.0 0.0 0.00 0.00 0.00 98 1017.7
20240712094518 67 0.0 0.0 0.00 0.00 0.00 97 1017.8
20240712093534 67 0.0 0.0 0.00 0.00 0.00 97 1017.7
20240712092529 67 0.0 0.0 0.00 0.00 0.00 97 1017.6
20240712091525 67 0.0 0.0 0.00 0.00 0.00 97 1017.5
20240712090521 67 0.0 0.0 0.00 0.00 0.00 97 1017.4
20240712085517 67 0.0 0.0 0.00 0.00 0.00 97 1017.3
20240712084533 67 0.0 0.0 0.00 0.00 0.00 97 1017.2
20240712083528 67 0.0 0.0 0.00 0.00 0.00 97 1017.2
20240712082524 67 39 0.0 2.0 0.00 0.00 0.00 97 1017.0
20240712081520 67 0.0 0.0 0.00 0.00 0.00 96 1016.9
20240712080515 68 0.0 0.0 0.00 0.00 0.00 96 1016.9
20240712075531 68 0.0 0.0 0.00 0.00 0.00 95 1016.8
20240712074526 68 0.0 0.0 0.00 0.00 0.00 94 1016.7
20240712073523 69 0.0 0.0 0.00 0.00 0.00 94 1016.6
20240712072518 69 0.0 0.0 0.00 0.00 0.00 93 1016.6
20240712071535 69 0.0 0.0 0.00 0.00 0.00 93 1016.5
20240712070529 70 0.0 0.0 0.00 0.00 0.00 93 1016.5
20240712065526 70 0.0 0.0 0.00 0.00 0.00 92 1016.3
20240712064522 70 0.0 0.0 0.00 0.00 0.00 91 1016.2
20240712063538 70 0.0 0.0 0.00 0.00 0.00 90 1016.3
20240712062533 70 0.0 0.0 0.00 0.00 0.00 90 1016.2
20240712061529 70 0.0 0.0 0.00 0.00 0.00 89 1016.3
20240712060544 71 0.0 0.0 0.00 0.00 0.00 88 1016.2
20240712055522 71 0.0 0.0 0.00 0.00 0.00 87 1016.0
20240712054516 72 0.0 0.0 0.00 0.00 0.00 86 1016.0
20240712053554 72 0.0 0.0 0.00 0.00 0.00 86 1016.0
20240712052548 73 0.0 0.0 0.00 0.00 0.00 86 1015.9
20240712051523 73 0.0 0.0 0.00 0.00 0.00 85 1015.9
20240712050520 73 0.0 0.0 0.00 0.00 0.00 85 1016.0
20240712045535 74 0.0 0.0 0.00 0.00 0.00 84 1015.8
20240712044551 74 32 0.0 1.0 0.00 0.00 0.00 83 1015.6
20240712043527 74 0.0 0.0 0.00 0.00 0.00 81 1015.6
20240712042524 74 0.0 0.0 0.00 0.00 0.00 79 1015.5
20240712041519 74 0.0 0.0 0.00 0.00 0.00 81 1015.6
20240712040535 74 0.0 0.0 0.00 0.00 0.00 81 1015.6
20240712035530 74 0.0 0.0 0.00 0.00 0.00 80 1015.5
20240712034526 74 0.0 0.0 0.00 0.00 0.00 80 1015.4
20240712033522 75 0.0 0.0 0.00 0.00 0.00 80 1015.3
20240712032543 75 0.0 0.0 0.00 0.00 0.00 79 1015.3
20240712031534 75 102 0.0 1.0 0.00 0.00 0.00 77 1015.2
20240712030529 75 0.0 0.0 0.00 0.00 0.00 77 1015.1
20240712025527 76 115 0.0 1.0 0.00 0.00 0.00 77 1015.0